sensor_id;sensor_type;location;lat;lon;timestamp;P1;durP1;ratioP1;P2;durP2;ratioP2
8704;SDS011;4389;41.932;25.904;2023-02-08T00:00:39;43.47;;;32.33;;
8704;SDS011;4389;41.932;25.904;2023-02-08T00:03:05;43.83;;;30.93;;
8704;SDS011;4389;41.932;25.904;2023-02-08T00:05:32;41.50;;;31.40;;
8704;SDS011;4389;41.932;25.904;2023-02-08T00:07:59;43.20;;;32.97;;
8704;SDS011;4389;41.932;25.904;2023-02-08T00:10:26;50.60;;;37.63;;
8704;SDS011;4389;41.932;25.904;2023-02-08T00:12:53;53.70;;;39.10;;
8704;SDS011;4389;41.932;25.904;2023-02-08T00:15:21;51.47;;;36.77;;
8704;SDS011;4389;41.932;25.904;2023-02-08T00:17:48;52.00;;;36.93;;
8704;SDS011;4389;41.932;25.904;2023-02-08T00:20:15;53.07;;;38.33;;
8704;SDS011;4389;41.932;25.904;2023-02-08T00:22:42;55.57;;;39.73;;
8704;SDS011;4389;41.932;25.904;2023-02-08T00:25:09;57.10;;;39.00;;
8704;SDS011;4389;41.932;25.904;2023-02-08T00:27:36;60.93;;;40.33;;
8704;SDS011;4389;41.932;25.904;2023-02-08T00:30:03;49.70;;;37.07;;
8704;SDS011;4389;41.932;25.904;2023-02-08T00:32:32;51.00;;;37.73;;
8704;SDS011;4389;41.932;25.904;2023-02-08T00:34:58;45.27;;;34.37;;
8704;SDS011;4389;41.932;25.904;2023-02-08T00:37:25;49.03;;;35.70;;
8704;SDS011;4389;41.932;25.904;2023-02-08T00:39:52;47.30;;;35.20;;
8704;SDS011;4389;41.932;25.904;2023-02-08T00:42:19;47.37;;;36.03;;
8704;SDS011;4389;41.932;25.904;2023-02-08T00:44:46;45.50;;;34.27;;
8704;SDS011;4389;41.932;25.904;2023-02-08T00:47:13;46.10;;;34.13;;
8704;SDS011;4389;41.932;25.904;2023-02-08T00:49:41;47.17;;;33.73;;
8704;SDS011;4389;41.932;25.904;2023-02-08T00:52:08;54.30;;;33.50;;
8704;SDS011;4389;41.932;25.904;2023-02-08T00:54:34;46.40;;;31.30;;
8704;SDS011;4389;41.932;25.904;2023-02-08T00:57:01;50.30;;;32.17;;
8704;SDS011;4389;41.932;25.904;2023-02-08T00:59:28;41.13;;;29.40;;
8704;SDS011;4389;41.932;25.904;2023-02-08T01:01:55;34.20;;;24.33;;
8704;SDS011;4389;41.932;25.904;2023-02-08T01:04:22;35.97;;;25.60;;
8704;SDS011;4389;41.932;25.904;2023-02-08T01:06:52;39.10;;;26.37;;
8704;SDS011;4389;41.932;25.904;2023-02-08T01:09:19;41.07;;;26.83;;
8704;SDS011;4389;41.932;25.904;2023-02-08T01:11:46;37.83;;;24.27;;
8704;SDS011;4389;41.932;25.904;2023-02-08T01:14:13;35.57;;;23.67;;
8704;SDS011;4389;41.932;25.904;2023-02-08T01:16:40;34.37;;;22.10;;
8704;SDS011;4389;41.932;25.904;2023-02-08T01:19:07;33.43;;;22.43;;
8704;SDS011;4389;41.932;25.904;2023-02-08T01:21:35;34.43;;;24.70;;
8704;SDS011;4389;41.932;25.904;2023-02-08T01:24:04;45.77;;;28.13;;
8704;SDS011;4389;41.932;25.904;2023-02-08T01:26:32;49.27;;;32.23;;
8704;SDS011;4389;41.932;25.904;2023-02-08T01:28:59;51.90;;;34.57;;
8704;SDS011;4389;41.932;25.904;2023-02-08T01:31:27;58.67;;;36.80;;
8704;SDS011;4389;41.932;25.904;2023-02-08T01:33:55;56.53;;;35.50;;
8704;SDS011;4389;41.932;25.904;2023-02-08T01:36:23;51.33;;;35.27;;
8704;SDS011;4389;41.932;25.904;2023-02-08T01:38:50;49.17;;;34.80;;
8704;SDS011;4389;41.932;25.904;2023-02-08T01:41:20;42.43;;;28.67;;
8704;SDS011;4389;41.932;25.904;2023-02-08T01:44:02;40.43;;;28.67;;
8704;SDS011;4389;41.932;25.904;2023-02-08T01:46:32;41.10;;;29.50;;
8704;SDS011;4389;41.932;25.904;2023-02-08T01:49:00;45.50;;;31.83;;
8704;SDS011;4389;41.932;25.904;2023-02-08T01:51:31;44.10;;;31.60;;
8704;SDS011;4389;41.932;25.904;2023-02-08T01:54:02;47.27;;;34.27;;
8704;SDS011;4389;41.932;25.904;2023-02-08T01:56:34;47.70;;;35.87;;
8704;SDS011;4389;41.932;25.904;2023-02-08T01:59:06;48.37;;;32.27;;
8704;SDS011;4389;41.932;25.904;2023-02-08T02:01:36;48.07;;;32.47;;
8704;SDS011;4389;41.932;25.904;2023-02-08T02:04:06;44.47;;;33.23;;
8704;SDS011;4389;41.932;25.904;2023-02-08T02:06:34;40.00;;;27.10;;
8704;SDS011;4389;41.932;25.904;2023-02-08T02:09:08;31.60;;;23.47;;
8704;SDS011;4389;41.932;25.904;2023-02-08T02:11:40;26.00;;;19.07;;
8704;SDS011;4389;41.932;25.904;2023-02-08T02:14:08;17.73;;;13.33;;
8704;SDS011;4389;41.932;25.904;2023-02-08T02:16:35;17.77;;;11.67;;
8704;SDS011;4389;41.932;25.904;2023-02-08T02:19:02;20.10;;;12.40;;
8704;SDS011;4389;41.932;25.904;2023-02-08T02:21:42;15.60;;;11.57;;
8704;SDS011;4389;41.932;25.904;2023-02-08T02:27:49;35.37;;;22.23;;
8704;SDS011;4389;41.932;25.904;2023-02-08T02:30:53;27.80;;;21.80;;
8704;SDS011;4389;41.932;25.904;2023-02-08T02:33:47;30.60;;;22.30;;
8704;SDS011;4389;41.932;25.904;2023-02-08T02:36:26;37.93;;;24.70;;
8704;SDS011;4389;41.932;25.904;2023-02-08T02:38:59;36.27;;;26.67;;
8704;SDS011;4389;41.932;25.904;2023-02-08T02:41:37;37.73;;;26.87;;
8704;SDS011;4389;41.932;25.904;2023-02-08T02:44:32;33.33;;;24.23;;
8704;SDS011;4389;41.932;25.904;2023-02-08T02:47:05;34.93;;;24.37;;
8704;SDS011;4389;41.932;25.904;2023-02-08T02:49:41;33.20;;;24.60;;
8704;SDS011;4389;41.932;25.904;2023-02-08T02:52:16;25.23;;;18.30;;
8704;SDS011;4389;41.932;25.904;2023-02-08T02:54:50;28.53;;;21.77;;
8704;SDS011;4389;41.932;25.904;2023-02-08T02:57:20;29.60;;;20.20;;
8704;SDS011;4389;41.932;25.904;2023-02-08T02:59:51;20.17;;;15.23;;
8704;SDS011;4389;41.932;25.904;2023-02-08T03:02:18;15.63;;;11.33;;
8704;SDS011;4389;41.932;25.904;2023-02-08T03:04:53;17.27;;;10.27;;
8704;SDS011;4389;41.932;25.904;2023-02-08T03:07:28;11.67;;;8.83;;
8704;SDS011;4389;41.932;25.904;2023-02-08T03:10:11;12.90;;;8.73;;
8704;SDS011;4389;41.932;25.904;2023-02-08T03:12:52;11.87;;;7.50;;
8704;SDS011;4389;41.932;25.904;2023-02-08T03:15:26;9.47;;;7.00;;
8704;SDS011;4389;41.932;25.904;2023-02-08T03:18:03;11.03;;;6.90;;
8704;SDS011;4389;41.932;25.904;2023-02-08T03:20:41;13.57;;;6.23;;
8704;SDS011;4389;41.932;25.904;2023-02-08T03:23:16;9.17;;;6.90;;
8704;SDS011;4389;41.932;25.904;2023-02-08T03:25:48;10.03;;;6.90;;
8704;SDS011;4389;41.932;25.904;2023-02-08T03:28:19;8.97;;;7.03;;
8704;SDS011;4389;41.932;25.904;2023-02-08T03:30:53;9.67;;;7.40;;
8704;SDS011;4389;41.932;25.904;2023-02-08T03:33:28;13.73;;;7.43;;
8704;SDS011;4389;41.932;25.904;2023-02-08T03:36:03;7.83;;;6.30;;
8704;SDS011;4389;41.932;25.904;2023-02-08T03:38:34;8.70;;;6.43;;
8704;SDS011;4389;41.932;25.904;2023-02-08T03:41:05;12.27;;;7.40;;
8704;SDS011;4389;41.932;25.904;2023-02-08T03:43:36;10.37;;;6.50;;
8704;SDS011;4389;41.932;25.904;2023-02-08T03:46:07;8.17;;;6.47;;
8704;SDS011;4389;41.932;25.904;2023-02-08T03:48:37;8.47;;;6.57;;
8704;SDS011;4389;41.932;25.904;2023-02-08T03:51:10;9.97;;;7.20;;
8704;SDS011;4389;41.932;25.904;2023-02-08T03:53:39;15.10;;;7.47;;
8704;SDS011;4389;41.932;25.904;2023-02-08T03:56:09;9.93;;;7.67;;
8704;SDS011;4389;41.932;25.904;2023-02-08T03:58:41;17.38;;;9.40;;
8704;SDS011;4389;41.932;25.904;2023-02-08T04:01:15;16.47;;;7.50;;
8704;SDS011;4389;41.932;25.904;2023-02-08T04:03:45;10.60;;;7.60;;
8704;SDS011;4389;41.932;25.904;2023-02-08T04:06:15;40.37;;;22.80;;
8704;SDS011;4389;41.932;25.904;2023-02-08T04:08:43;10.33;;;6.73;;
8704;SDS011;4389;41.932;25.904;2023-02-08T04:11:10;11.97;;;8.23;;
8704;SDS011;4389;41.932;25.904;2023-02-08T04:13:37;9.77;;;7.10;;
8704;SDS011;4389;41.932;25.904;2023-02-08T04:16:04;11.33;;;8.10;;
8704;SDS011;4389;41.932;25.904;2023-02-08T04:18:31;9.43;;;6.53;;
8704;SDS011;4389;41.932;25.904;2023-02-08T04:20:58;13.00;;;7.97;;
8704;SDS011;4389;41.932;25.904;2023-02-08T04:23:26;12.30;;;8.27;;
8704;SDS011;4389;41.932;25.904;2023-02-08T04:25:53;11.97;;;8.23;;
8704;SDS011;4389;41.932;25.904;2023-02-08T04:28:19;13.27;;;10.40;;
8704;SDS011;4389;41.932;25.904;2023-02-08T04:30:46;11.63;;;8.87;;
8704;SDS011;4389;41.932;25.904;2023-02-08T04:33:13;12.97;;;8.73;;
8704;SDS011;4389;41.932;25.904;2023-02-08T04:35:40;28.17;;;9.53;;
8704;SDS011;4389;41.932;25.904;2023-02-08T04:38:07;11.03;;;8.47;;
8704;SDS011;4389;41.932;25.904;2023-02-08T04:40:35;12.27;;;8.47;;
8704;SDS011;4389;41.932;25.904;2023-02-08T04:43:02;12.40;;;8.30;;
8704;SDS011;4389;41.932;25.904;2023-02-08T04:45:29;13.97;;;10.30;;
8704;SDS011;4389;41.932;25.904;2023-02-08T04:47:57;11.33;;;8.47;;
8704;SDS011;4389;41.932;25.904;2023-02-08T04:50:24;14.00;;;9.03;;
8704;SDS011;4389;41.932;25.904;2023-02-08T04:52:51;12.47;;;9.40;;
8704;SDS011;4389;41.932;25.904;2023-02-08T04:55:18;20.00;;;9.87;;
8704;SDS011;4389;41.932;25.904;2023-02-08T04:57:46;14.27;;;10.03;;
8704;SDS011;4389;41.932;25.904;2023-02-08T05:00:13;17.90;;;10.63;;
8704;SDS011;4389;41.932;25.904;2023-02-08T05:02:40;12.70;;;10.20;;
8704;SDS011;4389;41.932;25.904;2023-02-08T05:05:07;15.50;;;10.73;;
8704;SDS011;4389;41.932;25.904;2023-02-08T05:07:34;13.93;;;9.47;;
8704;SDS011;4389;41.932;25.904;2023-02-08T05:10:01;17.63;;;11.63;;
8704;SDS011;4389;41.932;25.904;2023-02-08T05:12:28;13.47;;;11.13;;
8704;SDS011;4389;41.932;25.904;2023-02-08T05:14:56;13.93;;;9.93;;
8704;SDS011;4389;41.932;25.904;2023-02-08T05:17:23;17.57;;;10.33;;
8704;SDS011;4389;41.932;25.904;2023-02-08T05:19:50;19.00;;;10.53;;
8704;SDS011;4389;41.932;25.904;2023-02-08T05:22:17;15.40;;;11.37;;
8704;SDS011;4389;41.932;25.904;2023-02-08T05:24:44;16.87;;;12.20;;
8704;SDS011;4389;41.932;25.904;2023-02-08T05:27:11;19.10;;;13.10;;
8704;SDS011;4389;41.932;25.904;2023-02-08T05:29:37;22.37;;;12.67;;
8704;SDS011;4389;41.932;25.904;2023-02-08T05:32:06;16.00;;;12.13;;
8704;SDS011;4389;41.932;25.904;2023-02-08T05:34:32;16.30;;;12.13;;
8704;SDS011;4389;41.932;25.904;2023-02-08T05:36:59;16.97;;;11.57;;
8704;SDS011;4389;41.932;25.904;2023-02-08T05:39:26;15.67;;;11.93;;
8704;SDS011;4389;41.932;25.904;2023-02-08T05:41:53;16.83;;;12.30;;
8704;SDS011;4389;41.932;25.904;2023-02-08T05:44:20;14.10;;;10.10;;
8704;SDS011;4389;41.932;25.904;2023-02-08T05:46:47;17.73;;;11.83;;
8704;SDS011;4389;41.932;25.904;2023-02-08T05:49:15;19.33;;;12.50;;
8704;SDS011;4389;41.932;25.904;2023-02-08T05:51:42;17.63;;;11.60;;
8704;SDS011;4389;41.932;25.904;2023-02-08T05:54:08;15.30;;;11.37;;
8704;SDS011;4389;41.932;25.904;2023-02-08T05:56:36;15.43;;;11.43;;
8704;SDS011;4389;41.932;25.904;2023-02-08T05:59:03;16.47;;;12.23;;
8704;SDS011;4389;41.932;25.904;2023-02-08T06:01:30;22.80;;;12.47;;
8704;SDS011;4389;41.932;25.904;2023-02-08T06:03:57;17.60;;;12.57;;
8704;SDS011;4389;41.932;25.904;2023-02-08T06:06:25;14.17;;;10.33;;
8704;SDS011;4389;41.932;25.904;2023-02-08T06:08:52;14.83;;;10.67;;
8704;SDS011;4389;41.932;25.904;2023-02-08T06:11:19;19.57;;;12.03;;
8704;SDS011;4389;41.932;25.904;2023-02-08T06:13:46;17.73;;;11.70;;
8704;SDS011;4389;41.932;25.904;2023-02-08T06:16:13;23.63;;;14.47;;
8704;SDS011;4389;41.932;25.904;2023-02-08T06:18:41;21.73;;;13.83;;
8704;SDS011;4389;41.932;25.904;2023-02-08T06:21:07;16.37;;;11.40;;
8704;SDS011;4389;41.932;25.904;2023-02-08T06:23:37;15.10;;;11.03;;
8704;SDS011;4389;41.932;25.904;2023-02-08T06:26:05;19.37;;;11.33;;
8704;SDS011;4389;41.932;25.904;2023-02-08T06:28:33;14.67;;;9.53;;
8704;SDS011;4389;41.932;25.904;2023-02-08T06:30:59;14.67;;;11.33;;
8704;SDS011;4389;41.932;25.904;2023-02-08T06:33:26;29.03;;;11.77;;
8704;SDS011;4389;41.932;25.904;2023-02-08T06:35:53;15.20;;;10.00;;
8704;SDS011;4389;41.932;25.904;2023-02-08T06:38:20;18.43;;;10.33;;
8704;SDS011;4389;41.932;25.904;2023-02-08T06:40:48;14.03;;;9.63;;
8704;SDS011;4389;41.932;25.904;2023-02-08T06:43:15;15.37;;;10.90;;
8704;SDS011;4389;41.932;25.904;2023-02-08T06:45:43;18.00;;;11.33;;
8704;SDS011;4389;41.932;25.904;2023-02-08T06:48:10;16.57;;;11.13;;
8704;SDS011;4389;41.932;25.904;2023-02-08T06:50:37;17.67;;;10.73;;
8704;SDS011;4389;41.932;25.904;2023-02-08T06:53:04;11.70;;;9.23;;
8704;SDS011;4389;41.932;25.904;2023-02-08T06:55:31;12.87;;;9.57;;
8704;SDS011;4389;41.932;25.904;2023-02-08T06:57:59;14.27;;;9.53;;
8704;SDS011;4389;41.932;25.904;2023-02-08T07:00:26;15.33;;;10.60;;
8704;SDS011;4389;41.932;25.904;2023-02-08T07:02:52;17.00;;;10.93;;
8704;SDS011;4389;41.932;25.904;2023-02-08T07:05:19;15.73;;;10.87;;
8704;SDS011;4389;41.932;25.904;2023-02-08T07:07:46;12.90;;;9.20;;
8704;SDS011;4389;41.932;25.904;2023-02-08T07:10:13;16.47;;;10.37;;
8704;SDS011;4389;41.932;25.904;2023-02-08T07:12:40;12.60;;;8.97;;
8704;SDS011;4389;41.932;25.904;2023-02-08T07:15:09;14.83;;;11.53;;
8704;SDS011;4389;41.932;25.904;2023-02-08T07:17:38;11.53;;;9.03;;
8704;SDS011;4389;41.932;25.904;2023-02-08T07:20:05;17.30;;;10.37;;
8704;SDS011;4389;41.932;25.904;2023-02-08T07:22:32;24.67;;;9.20;;
8704;SDS011;4389;41.932;25.904;2023-02-08T07:24:59;14.47;;;9.67;;
8704;SDS011;4389;41.932;25.904;2023-02-08T07:27:26;15.33;;;9.90;;
8704;SDS011;4389;41.932;25.904;2023-02-08T07:29:53;23.27;;;9.63;;
8704;SDS011;4389;41.932;25.904;2023-02-08T07:32:21;17.03;;;11.40;;
8704;SDS011;4389;41.932;25.904;2023-02-08T07:34:48;16.40;;;9.97;;
8704;SDS011;4389;41.932;25.904;2023-02-08T07:37:15;13.67;;;9.10;;
8704;SDS011;4389;41.932;25.904;2023-02-08T07:39:41;11.47;;;8.00;;
8704;SDS011;4389;41.932;25.904;2023-02-08T07:42:08;23.50;;;11.60;;
8704;SDS011;4389;41.932;25.904;2023-02-08T07:44:35;13.23;;;8.33;;
8704;SDS011;4389;41.932;25.904;2023-02-08T07:47:03;13.77;;;7.67;;
8704;SDS011;4389;41.932;25.904;2023-02-08T07:49:32;10.17;;;7.20;;
8704;SDS011;4389;41.932;25.904;2023-02-08T07:51:59;8.23;;;6.13;;
8704;SDS011;4389;41.932;25.904;2023-02-08T07:54:27;11.53;;;8.03;;
8704;SDS011;4389;41.932;25.904;2023-02-08T07:56:54;18.67;;;9.07;;
8704;SDS011;4389;41.932;25.904;2023-02-08T07:59:21;10.37;;;7.10;;
8704;SDS011;4389;41.932;25.904;2023-02-08T08:01:48;11.13;;;6.43;;
8704;SDS011;4389;41.932;25.904;2023-02-08T08:04:15;11.33;;;7.10;;
8704;SDS011;4389;41.932;25.904;2023-02-08T08:06:45;9.07;;;6.97;;
8704;SDS011;4389;41.932;25.904;2023-02-08T08:09:13;20.83;;;9.13;;
8704;SDS011;4389;41.932;25.904;2023-02-08T08:11:40;12.03;;;7.90;;
8704;SDS011;4389;41.932;25.904;2023-02-08T08:14:07;14.33;;;8.93;;
8704;SDS011;4389;41.932;25.904;2023-02-08T08:16:34;13.33;;;9.20;;
8704;SDS011;4389;41.932;25.904;2023-02-08T08:19:01;11.43;;;6.90;;
8704;SDS011;4389;41.932;25.904;2023-02-08T08:21:28;12.20;;;7.03;;
8704;SDS011;4389;41.932;25.904;2023-02-08T08:23:56;8.93;;;5.83;;
8704;SDS011;4389;41.932;25.904;2023-02-08T08:26:23;9.47;;;6.77;;
8704;SDS011;4389;41.932;25.904;2023-02-08T08:28:49;10.10;;;6.60;;
8704;SDS011;4389;41.932;25.904;2023-02-08T08:31:17;8.20;;;6.60;;
8704;SDS011;4389;41.932;25.904;2023-02-08T08:33:45;8.63;;;6.00;;
8704;SDS011;4389;41.932;25.904;2023-02-08T08:36:12;7.50;;;5.27;;
8704;SDS011;4389;41.932;25.904;2023-02-08T08:38:39;8.83;;;6.43;;
8704;SDS011;4389;41.932;25.904;2023-02-08T08:41:09;8.07;;;5.63;;
8704;SDS011;4389;41.932;25.904;2023-02-08T08:43:36;9.83;;;7.23;;
8704;SDS011;4389;41.932;25.904;2023-02-08T08:46:04;9.47;;;6.30;;
8704;SDS011;4389;41.932;25.904;2023-02-08T08:48:31;8.03;;;5.83;;
8704;SDS011;4389;41.932;25.904;2023-02-08T08:50:58;10.83;;;6.87;;
8704;SDS011;4389;41.932;25.904;2023-02-08T08:53:25;10.07;;;6.77;;
8704;SDS011;4389;41.932;25.904;2023-02-08T08:55:52;9.40;;;5.33;;
8704;SDS011;4389;41.932;25.904;2023-02-08T08:58:20;8.60;;;6.57;;
8704;SDS011;4389;41.932;25.904;2023-02-08T09:00:47;8.30;;;6.77;;
8704;SDS011;4389;41.932;25.904;2023-02-08T09:03:14;22.77;;;13.93;;
8704;SDS011;4389;41.932;25.904;2023-02-08T09:05:40;10.80;;;5.57;;
8704;SDS011;4389;41.932;25.904;2023-02-08T09:08:08;11.30;;;7.77;;
8704;SDS011;4389;41.932;25.904;2023-02-08T09:10:34;12.47;;;5.83;;
8704;SDS011;4389;41.932;25.904;2023-02-08T09:13:01;8.83;;;5.73;;
8704;SDS011;4389;41.932;25.904;2023-02-08T09:15:30;8.23;;;5.30;;
8704;SDS011;4389;41.932;25.904;2023-02-08T09:17:56;6.73;;;5.47;;
8704;SDS011;4389;41.932;25.904;2023-02-08T09:20:23;9.87;;;6.00;;
8704;SDS011;4389;41.932;25.904;2023-02-08T09:22:51;7.77;;;5.40;;
8704;SDS011;4389;41.932;25.904;2023-02-08T09:25:17;10.97;;;5.80;;
8704;SDS011;4389;41.932;25.904;2023-02-08T09:27:44;8.20;;;5.50;;
8704;SDS011;4389;41.932;25.904;2023-02-08T09:30:11;13.03;;;6.57;;
8704;SDS011;4389;41.932;25.904;2023-02-08T09:32:40;15.77;;;6.90;;
8704;SDS011;4389;41.932;25.904;2023-02-08T09:35:07;10.47;;;6.23;;
8704;SDS011;4389;41.932;25.904;2023-02-08T09:37:35;8.40;;;6.37;;
8704;SDS011;4389;41.932;25.904;2023-02-08T09:40:02;8.33;;;5.67;;
8704;SDS011;4389;41.932;25.904;2023-02-08T09:42:32;9.00;;;6.07;;
8704;SDS011;4389;41.932;25.904;2023-02-08T09:45:21;8.37;;;6.20;;
8704;SDS011;4389;41.932;25.904;2023-02-08T09:47:58;9.93;;;6.00;;
8704;SDS011;4389;41.932;25.904;2023-02-08T09:50:31;9.90;;;5.50;;
8704;SDS011;4389;41.932;25.904;2023-02-08T09:53:01;11.17;;;6.23;;
8704;SDS011;4389;41.932;25.904;2023-02-08T09:55:35;12.17;;;6.00;;
8704;SDS011;4389;41.932;25.904;2023-02-08T09:58:07;7.77;;;5.13;;
8704;SDS011;4389;41.932;25.904;2023-02-08T10:00:43;5.73;;;4.93;;
8704;SDS011;4389;41.932;25.904;2023-02-08T10:03:18;25.73;;;7.83;;
8704;SDS011;4389;41.932;25.904;2023-02-08T10:05:50;7.37;;;5.77;;
8704;SDS011;4389;41.932;25.904;2023-02-08T10:08:17;18.83;;;6.70;;
8704;SDS011;4389;41.932;25.904;2023-02-08T10:10:47;8.53;;;5.80;;
8704;SDS011;4389;41.932;25.904;2023-02-08T10:13:26;8.13;;;5.60;;
8704;SDS011;4389;41.932;25.904;2023-02-08T10:16:17;11.03;;;5.97;;
8704;SDS011;4389;41.932;25.904;2023-02-08T10:18:59;10.53;;;4.73;;
8704;SDS011;4389;41.932;25.904;2023-02-08T10:21:37;7.60;;;5.27;;
8704;SDS011;4389;41.932;25.904;2023-02-08T10:24:20;5.20;;;4.30;;
8704;SDS011;4389;41.932;25.904;2023-02-08T10:26:58;11.33;;;5.93;;
8704;SDS011;4389;41.932;25.904;2023-02-08T10:29:47;5.47;;;4.67;;
8704;SDS011;4389;41.932;25.904;2023-02-08T10:32:32;6.93;;;4.97;;
8704;SDS011;4389;41.932;25.904;2023-02-08T10:35:14;7.47;;;4.70;;
8704;SDS011;4389;41.932;25.904;2023-02-08T10:37:49;6.07;;;4.10;;
8704;SDS011;4389;41.932;25.904;2023-02-08T10:40:21;12.87;;;5.47;;
8704;SDS011;4389;41.932;25.904;2023-02-08T10:42:55;22.10;;;4.90;;
8704;SDS011;4389;41.932;25.904;2023-02-08T10:45:29;15.00;;;4.70;;
8704;SDS011;4389;41.932;25.904;2023-02-08T10:48:02;7.77;;;5.53;;
8704;SDS011;4389;41.932;25.904;2023-02-08T10:50:37;7.67;;;5.60;;
8704;SDS011;4389;41.932;25.904;2023-02-08T10:53:08;11.20;;;6.13;;
8704;SDS011;4389;41.932;25.904;2023-02-08T10:55:40;8.00;;;5.33;;
8704;SDS011;4389;41.932;25.904;2023-02-08T10:58:09;10.60;;;5.67;;
8704;SDS011;4389;41.932;25.904;2023-02-08T11:00:41;6.63;;;4.50;;
8704;SDS011;4389;41.932;25.904;2023-02-08T11:03:13;9.50;;;4.50;;
8704;SDS011;4389;41.932;25.904;2023-02-08T11:05:44;22.87;;;5.27;;
8704;SDS011;4389;41.932;25.904;2023-02-08T11:08:12;7.90;;;4.70;;
8704;SDS011;4389;41.932;25.904;2023-02-08T11:10:42;7.10;;;4.87;;
8704;SDS011;4389;41.932;25.904;2023-02-08T11:13:16;6.80;;;4.70;;
8704;SDS011;4389;41.932;25.904;2023-02-08T11:15:46;6.43;;;4.23;;
8704;SDS011;4389;41.932;25.904;2023-02-08T11:18:16;19.60;;;4.87;;
8704;SDS011;4389;41.932;25.904;2023-02-08T11:20:48;13.77;;;5.20;;
8704;SDS011;4389;41.932;25.904;2023-02-08T11:23:22;6.23;;;4.70;;
8704;SDS011;4389;41.932;25.904;2023-02-08T11:25:51;7.27;;;4.80;;
8704;SDS011;4389;41.932;25.904;2023-02-08T11:28:23;5.17;;;4.13;;
8704;SDS011;4389;41.932;25.904;2023-02-08T11:30:57;11.70;;;4.73;;
8704;SDS011;4389;41.932;25.904;2023-02-08T11:33:26;7.00;;;4.50;;
8704;SDS011;4389;41.932;25.904;2023-02-08T11:36:02;6.87;;;4.57;;
8704;SDS011;4389;41.932;25.904;2023-02-08T11:38:32;6.93;;;4.40;;
8704;SDS011;4389;41.932;25.904;2023-02-08T11:41:02;7.50;;;4.83;;
8704;SDS011;4389;41.932;25.904;2023-02-08T11:43:31;6.37;;;4.63;;
8704;SDS011;4389;41.932;25.904;2023-02-08T11:46:00;6.93;;;4.67;;
8704;SDS011;4389;41.932;25.904;2023-02-08T11:48:32;4.97;;;4.13;;
8704;SDS011;4389;41.932;25.904;2023-02-08T11:51:07;7.40;;;4.27;;
8704;SDS011;4389;41.932;25.904;2023-02-08T11:53:38;5.17;;;3.87;;
8704;SDS011;4389;41.932;25.904;2023-02-08T11:56:13;8.10;;;4.57;;
8704;SDS011;4389;41.932;25.904;2023-02-08T11:58:54;6.97;;;4.60;;
8704;SDS011;4389;41.932;25.904;2023-02-08T12:01:25;4.30;;;3.60;;
8704;SDS011;4389;41.932;25.904;2023-02-08T12:03:54;5.83;;;3.97;;
8704;SDS011;4389;41.932;25.904;2023-02-08T12:06:35;6.73;;;4.50;;
8704;SDS011;4389;41.932;25.904;2023-02-08T12:09:27;6.40;;;3.90;;
8704;SDS011;4389;41.932;25.904;2023-02-08T12:12:04;12.50;;;6.30;;
8704;SDS011;4389;41.932;25.904;2023-02-08T12:14:45;7.60;;;5.40;;
8704;SDS011;4389;41.932;25.904;2023-02-08T12:17:25;6.37;;;4.53;;
8704;SDS011;4389;41.932;25.904;2023-02-08T12:20:08;6.27;;;4.33;;
8704;SDS011;4389;41.932;25.904;2023-02-08T12:22:54;11.40;;;3.67;;
8704;SDS011;4389;41.932;25.904;2023-02-08T12:25:31;8.27;;;4.03;;
8704;SDS011;4389;41.932;25.904;2023-02-08T12:28:08;8.97;;;4.20;;
8704;SDS011;4389;41.932;25.904;2023-02-08T12:30:42;5.80;;;4.37;;
8704;SDS011;4389;41.932;25.904;2023-02-08T12:33:21;5.43;;;4.20;;
8704;SDS011;4389;41.932;25.904;2023-02-08T12:36:05;3.67;;;3.30;;
8704;SDS011;4389;41.932;25.904;2023-02-08T12:38:55;5.80;;;4.23;;
8704;SDS011;4389;41.932;25.904;2023-02-08T12:42:03;5.67;;;3.27;;
8704;SDS011;4389;41.932;25.904;2023-02-08T12:44:39;4.77;;;3.43;;
8704;SDS011;4389;41.932;25.904;2023-02-08T12:47:26;5.93;;;4.20;;
8704;SDS011;4389;41.932;25.904;2023-02-08T12:50:06;6.53;;;4.43;;
8704;SDS011;4389;41.932;25.904;2023-02-08T12:52:45;6.03;;;4.63;;
8704;SDS011;4389;41.932;25.904;2023-02-08T12:55:17;6.83;;;4.33;;
8704;SDS011;4389;41.932;25.904;2023-02-08T12:57:51;5.63;;;4.03;;
8704;SDS011;4389;41.932;25.904;2023-02-08T13:00:23;8.17;;;4.70;;
8704;SDS011;4389;41.932;25.904;2023-02-08T13:02:54;5.10;;;4.17;;
8704;SDS011;4389;41.932;25.904;2023-02-08T13:05:29;8.87;;;4.80;;
8704;SDS011;4389;41.932;25.904;2023-02-08T13:08:01;6.23;;;4.27;;
8704;SDS011;4389;41.932;25.904;2023-02-08T13:10:35;7.80;;;4.17;;
8704;SDS011;4389;41.932;25.904;2023-02-08T13:13:06;6.17;;;4.10;;
8704;SDS011;4389;41.932;25.904;2023-02-08T13:15:41;7.83;;;5.10;;
8704;SDS011;4389;41.932;25.904;2023-02-08T13:18:12;5.17;;;4.33;;
8704;SDS011;4389;41.932;25.904;2023-02-08T13:20:43;20.10;;;5.37;;
8704;SDS011;4389;41.932;25.904;2023-02-08T13:23:14;6.90;;;4.60;;
8704;SDS011;4389;41.932;25.904;2023-02-08T13:25:51;10.83;;;5.13;;
8704;SDS011;4389;41.932;25.904;2023-02-08T13:28:22;12.60;;;4.53;;
8704;SDS011;4389;41.932;25.904;2023-02-08T13:30:55;8.67;;;5.70;;
8704;SDS011;4389;41.932;25.904;2023-02-08T13:33:32;5.77;;;4.33;;
8704;SDS011;4389;41.932;25.904;2023-02-08T13:36:05;7.13;;;5.07;;
8704;SDS011;4389;41.932;25.904;2023-02-08T13:38:45;5.00;;;3.63;;
8704;SDS011;4389;41.932;25.904;2023-02-08T13:41:15;6.90;;;3.53;;
8704;SDS011;4389;41.932;25.904;2023-02-08T13:43:45;7.40;;;4.37;;
8704;SDS011;4389;41.932;25.904;2023-02-08T13:46:16;14.37;;;6.07;;
8704;SDS011;4389;41.932;25.904;2023-02-08T13:48:46;10.13;;;5.17;;
8704;SDS011;4389;41.932;25.904;2023-02-08T13:54:17;6.47;;;4.37;;
8704;SDS011;4389;41.932;25.904;2023-02-08T13:56:45;5.17;;;3.90;;
8704;SDS011;4389;41.932;25.904;2023-02-08T13:59:24;5.63;;;4.93;;
8704;SDS011;4389;41.932;25.904;2023-02-08T14:04:47;8.30;;;4.73;;
8704;SDS011;4389;41.932;25.904;2023-02-08T14:07:21;8.43;;;5.27;;
8704;SDS011;4389;41.932;25.904;2023-02-08T14:10:03;12.47;;;5.27;;
8704;SDS011;4389;41.932;25.904;2023-02-08T14:12:38;8.87;;;6.03;;
8704;SDS011;4389;41.932;25.904;2023-02-08T14:15:28;9.70;;;6.07;;
8704;SDS011;4389;41.932;25.904;2023-02-08T14:17:57;8.83;;;4.70;;
8704;SDS011;4389;41.932;25.904;2023-02-08T14:20:27;6.03;;;4.77;;
8704;SDS011;4389;41.932;25.904;2023-02-08T14:22:57;8.33;;;5.27;;
8704;SDS011;4389;41.932;25.904;2023-02-08T14:25:28;7.20;;;5.27;;
8704;SDS011;4389;41.932;25.904;2023-02-08T14:28:05;9.47;;;7.20;;
8704;SDS011;4389;41.932;25.904;2023-02-08T14:30:33;9.43;;;6.67;;
8704;SDS011;4389;41.932;25.904;2023-02-08T14:33:11;7.23;;;5.27;;
8704;SDS011;4389;41.932;25.904;2023-02-08T14:35:49;10.70;;;6.17;;
8704;SDS011;4389;41.932;25.904;2023-02-08T14:50:29;7.43;;;4.90;;
8704;SDS011;4389;41.932;25.904;2023-02-08T14:53:03;6.70;;;5.00;;
8704;SDS011;4389;41.932;25.904;2023-02-08T14:55:42;9.13;;;5.00;;
8704;SDS011;4389;41.932;25.904;2023-02-08T14:58:14;5.70;;;4.43;;
8704;SDS011;4389;41.932;25.904;2023-02-08T15:00:50;7.97;;;5.93;;
8704;SDS011;4389;41.932;25.904;2023-02-08T15:03:19;10.20;;;6.97;;
8704;SDS011;4389;41.932;25.904;2023-02-08T15:05:54;12.27;;;6.63;;
8704;SDS011;4389;41.932;25.904;2023-02-08T15:08:51;8.27;;;5.87;;
8704;SDS011;4389;41.932;25.904;2023-02-08T15:11:21;10.17;;;5.93;;
8704;SDS011;4389;41.932;25.904;2023-02-08T15:13:51;7.37;;;5.07;;
8704;SDS011;4389;41.932;25.904;2023-02-08T15:16:21;11.30;;;5.67;;
8704;SDS011;4389;41.932;25.904;2023-02-08T15:18:54;10.40;;;6.07;;
8704;SDS011;4389;41.932;25.904;2023-02-08T15:21:22;8.97;;;5.20;;
8704;SDS011;4389;41.932;25.904;2023-02-08T15:23:59;11.87;;;5.80;;
8704;SDS011;4389;41.932;25.904;2023-02-08T15:26:27;7.73;;;5.53;;
8704;SDS011;4389;41.932;25.904;2023-02-08T15:28:54;6.83;;;4.97;;
8704;SDS011;4389;41.932;25.904;2023-02-08T15:31:22;8.10;;;4.97;;